CST,Max TemperatureF,Mean TemperatureF,Min TemperatureF,Max Dew PointF,MeanDew PointF,Min DewpointF,Max Humidity, Mean Humidity, Min Humidity, Max Sea Level PressureIn, Mean Sea Level PressureIn, Min Sea Level PressureIn, Max VisibilityMiles, Mean VisibilityMiles, Min VisibilityMiles, Max Wind SpeedMPH, Mean Wind SpeedMPH, Max Gust SpeedMPH,PrecipitationIn, CloudCover, Events, WindDirDegrees
2011-11-1,53,50,46,46,40,37,93,68,54,29.90,29.83,29.78,10,10,9,14,11,20,0.00,7,,308
2011-11-2,,,,,,,,,,,,,,,,,,,,,,
2011-11-3,,,,,,,,,,,,,,,,,,,,,,
2011-11-4,,,,,,,,,,,,,,,,,,,,,,
2011-11-5,,,,,,,,,,,,,,,,,,,,,,
2011-11-6,,,,,,,,,,,,,,,,,,,,,,
2011-11-7,,,,,,,,,,,,,,,,,,,,,,
2011-11-8,,,,,,,,,,,,,,,,,,,,,,
2011-11-9,,,,,,,,,,,,,,,,,,,,,,
2011-11-10,,,,,,,,,,,,,,,,,,,,,,
2011-11-11,57,44,32,32,28,23,80,59,36,29.56,29.53,29.48,10,10,10,12,10,,0.00,0,,223
2011-11-12,55,44,32,28,25,21,75,53,33,29.47,29.32,29.17,10,10,10,13,10,,0.00,0,,213
2011-11-13,50,42,33,34,30,25,93,68,40,29.33,29.28,29.19,10,10,9,16,10,23,0.00,3,,268
2011-11-14,46,39,32,32,28,23,87,70,46,29.49,29.41,29.34,10,10,10,25,13,36,0.00,1,,247
2011-11-15,39,32,23,32,22,14,93,66,48,29.96,29.71,29.51,10,10,3,39,12,51,0.00,5,,278
2011-11-16,28,22,15,19,14,10,86,68,51,30.17,30.08,29.97,10,10,10,24,13,32,0.00,3,,274
2011-11-17,32,21,10,16,12,5,92,66,47,30.19,30.02,29.71,10,10,10,22,9,28,0.00,1,,187
2011-11-18,39,31,23,36,22,14,100,72,51,29.80,29.64,29.56,10,10,2,20,7,22,0.00,3,,321
2011-11-19,23,18,14,19,12,5,86,75,63,30.23,30.00,29.84,10,10,10,26,16,31,0.00,4,,2
2011-11-20,24,14,5,10,7,1,92,76,54,30.34,30.26,30.16,10,10,10,13,6,17,0.00,0,,172
2011-11-21,37,22,8,25,17,5,93,81,56,30.19,30.13,30.07,10,10,8,13,6,,0.00,0,,139
2011-11-22,33,25,17,34,26,16,100,99,93,30.08,30.02,29.97,7,3,0,13,6,,0.00,5,,190
2011-11-23,44,36,28,34,32,28,100,87,66,29.99,29.93,29.83,10,10,7,21,15,23,0.00,0,,214
2011-11-24,53,42,30,34,32,27,93,72,44,29.76,29.68,29.64,10,10,10,17,13,,0.00,0,,222
2011-11-25,41,36,30,36,33,28,100,93,81,29.71,29.66,29.60,10,10,6,17,9,,0.00,2,,9
2011-11-26,37,35,32,36,31,23,100,88,69,30.28,30.05,29.76,10,9,1,30,21,40,0.00,8,,325
2011-11-27,35,26,17,23,18,14,86,70,48,30.32,30.21,30.00,10,10,10,15,10,,0.00,1,,262
2011-11-28,53,42,28,34,23,14,87,56,43,30.31,30.04,29.86,10,10,10,25,16,32,0.00,0,,270
2011-11-29,41,28,14,25,19,12,93,73,42,30.38,30.27,30.03,10,10,10,17,10,22,0.00,0,,236
2011-11-30,37,32,28,32,28,21,100,82,69,30.13,29.94,29.86,10,10,8,20,11,25,0.00,3,,340